sensor_id;sensor_type;location;lat;lon;timestamp;temperature;humidity
10270;DHT22;5180;50.832;5.390;2022-09-16T00:01:19;14.70;99.90
10270;DHT22;5180;50.832;5.390;2022-09-16T00:03:46;14.60;99.90
10270;DHT22;5180;50.832;5.390;2022-09-16T00:06:23;14.70;99.90
10270;DHT22;5180;50.832;5.390;2022-09-16T00:08:49;14.70;99.90
10270;DHT22;5180;50.832;5.390;2022-09-16T00:11:16;14.70;99.90
10270;DHT22;5180;50.832;5.390;2022-09-16T00:13:42;14.70;99.90
10270;DHT22;5180;50.832;5.390;2022-09-16T00:16:09;14.70;99.90
10270;DHT22;5180;50.832;5.390;2022-09-16T00:18:35;14.80;99.90
10270;DHT22;5180;50.832;5.390;2022-09-16T00:21:01;14.70;99.90
10270;DHT22;5180;50.832;5.390;2022-09-16T00:23:26;14.70;99.90
10270;DHT22;5180;50.832;5.390;2022-09-16T00:25:53;14.70;99.90
10270;DHT22;5180;50.832;5.390;2022-09-16T00:28:20;14.70;99.90
10270;DHT22;5180;50.832;5.390;2022-09-16T00:30:47;14.70;99.90
10270;DHT22;5180;50.832;5.390;2022-09-16T00:33:13;14.60;99.90
10270;DHT22;5180;50.832;5.390;2022-09-16T00:35:39;14.60;99.90
10270;DHT22;5180;50.832;5.390;2022-09-16T00:38:05;14.50;99.90
10270;DHT22;5180;50.832;5.390;2022-09-16T00:40:30;14.50;99.90
10270;DHT22;5180;50.832;5.390;2022-09-16T00:42:56;14.50;99.90
10270;DHT22;5180;50.832;5.390;2022-09-16T00:45:25;14.50;99.90
10270;DHT22;5180;50.832;5.390;2022-09-16T00:48:04;14.50;99.90
10270;DHT22;5180;50.832;5.390;2022-09-16T00:53:03;14.50;99.90
10270;DHT22;5180;50.832;5.390;2022-09-16T00:55:32;14.50;99.90
10270;DHT22;5180;50.832;5.390;2022-09-16T00:58:11;14.50;99.90
10270;DHT22;5180;50.832;5.390;2022-09-16T01:00:39;14.40;99.90
10270;DHT22;5180;50.832;5.390;2022-09-16T01:03:06;14.30;99.90
10270;DHT22;5180;50.832;5.390;2022-09-16T01:05:33;14.30;99.90
10270;DHT22;5180;50.832;5.390;2022-09-16T01:07:58;14.30;99.90
10270;DHT22;5180;50.832;5.390;2022-09-16T01:10:25;14.30;99.90
10270;DHT22;5180;50.832;5.390;2022-09-16T01:12:57;14.30;99.90
10270;DHT22;5180;50.832;5.390;2022-09-16T01:15:32;14.30;99.90
10270;DHT22;5180;50.832;5.390;2022-09-16T01:23:29;14.30;99.90
10270;DHT22;5180;50.832;5.390;2022-09-16T01:31:27;14.40;99.90
10270;DHT22;5180;50.832;5.390;2022-09-16T01:34:47;14.30;99.90
10270;DHT22;5180;50.832;5.390;2022-09-16T01:37:23;14.20;99.90
10270;DHT22;5180;50.832;5.390;2022-09-16T01:40:12;14.20;99.90
10270;DHT22;5180;50.832;5.390;2022-09-16T01:43:00;14.20;99.90
10270;DHT22;5180;50.832;5.390;2022-09-16T01:50:59;13.90;99.90
10270;DHT22;5180;50.832;5.390;2022-09-16T01:53:42;13.90;99.90
10270;DHT22;5180;50.832;5.390;2022-09-16T01:56:25;13.80;99.90
10270;DHT22;5180;50.832;5.390;2022-09-16T01:59:11;13.80;99.90
10270;DHT22;5180;50.832;5.390;2022-09-16T02:01:43;13.80;99.90
10270;DHT22;5180;50.832;5.390;2022-09-16T02:04:17;13.70;99.90
10270;DHT22;5180;50.832;5.390;2022-09-16T02:06:49;13.60;99.90
10270;DHT22;5180;50.832;5.390;2022-09-16T02:09:20;13.60;99.90
10270;DHT22;5180;50.832;5.390;2022-09-16T02:11:49;13.50;99.90
10270;DHT22;5180;50.832;5.390;2022-09-16T02:14:45;13.50;99.90
10270;DHT22;5180;50.832;5.390;2022-09-16T02:17:16;13.40;99.90
10270;DHT22;5180;50.832;5.390;2022-09-16T02:22:48;13.30;99.90
10270;DHT22;5180;50.832;5.390;2022-09-16T02:25:17;13.30;99.90
10270;DHT22;5180;50.832;5.390;2022-09-16T02:27:45;13.20;99.90
10270;DHT22;5180;50.832;5.390;2022-09-16T02:30:16;13.20;99.90
10270;DHT22;5180;50.832;5.390;2022-09-16T02:32:46;13.20;99.90
10270;DHT22;5180;50.832;5.390;2022-09-16T02:35:15;13.20;99.90
10270;DHT22;5180;50.832;5.390;2022-09-16T02:37:57;13.20;99.90
10270;DHT22;5180;50.832;5.390;2022-09-16T02:40:28;13.20;99.90
10270;DHT22;5180;50.832;5.390;2022-09-16T02:42:57;13.10;99.90
10270;DHT22;5180;50.832;5.390;2022-09-16T02:45:28;13.10;99.90
10270;DHT22;5180;50.832;5.390;2022-09-16T02:48:26;13.10;99.90
10270;DHT22;5180;50.832;5.390;2022-09-16T02:51:04;13.20;99.90
10270;DHT22;5180;50.832;5.390;2022-09-16T02:53:58;13.10;99.90
10270;DHT22;5180;50.832;5.390;2022-09-16T02:56:34;13.10;99.90
10270;DHT22;5180;50.832;5.390;2022-09-16T02:59:02;13.00;99.90
10270;DHT22;5180;50.832;5.390;2022-09-16T03:01:31;13.00;99.90
10270;DHT22;5180;50.832;5.390;2022-09-16T03:03:58;12.90;99.90
10270;DHT22;5180;50.832;5.390;2022-09-16T03:06:25;12.80;99.90
10270;DHT22;5180;50.832;5.390;2022-09-16T03:08:54;12.80;99.90
10270;DHT22;5180;50.832;5.390;2022-09-16T03:19:29;12.60;99.90
10270;DHT22;5180;50.832;5.390;2022-09-16T03:23:05;12.50;99.90
10270;DHT22;5180;50.832;5.390;2022-09-16T03:30:24;12.20;99.90
10270;DHT22;5180;50.832;5.390;2022-09-16T03:32:56;12.10;99.90
10270;DHT22;5180;50.832;5.390;2022-09-16T03:35:29;12.00;99.90
10270;DHT22;5180;50.832;5.390;2022-09-16T03:37:57;11.90;99.90
10270;DHT22;5180;50.832;5.390;2022-09-16T03:40:24;11.90;99.90
10270;DHT22;5180;50.832;5.390;2022-09-16T03:42:51;11.90;99.90
10270;DHT22;5180;50.832;5.390;2022-09-16T03:45:19;11.80;99.90
10270;DHT22;5180;50.832;5.390;2022-09-16T03:47:46;11.80;99.90
10270;DHT22;5180;50.832;5.390;2022-09-16T03:50:13;11.80;99.90
10270;DHT22;5180;50.832;5.390;2022-09-16T03:52:39;11.90;99.90
10270;DHT22;5180;50.832;5.390;2022-09-16T03:55:05;11.90;99.90
10270;DHT22;5180;50.832;5.390;2022-09-16T03:57:32;11.90;99.90
10270;DHT22;5180;50.832;5.390;2022-09-16T03:59:57;12.00;99.90
10270;DHT22;5180;50.832;5.390;2022-09-16T04:02:23;12.00;99.90
10270;DHT22;5180;50.832;5.390;2022-09-16T04:04:49;12.00;99.90
10270;DHT22;5180;50.832;5.390;2022-09-16T04:07:14;12.00;99.90
10270;DHT22;5180;50.832;5.390;2022-09-16T04:09:40;12.10;99.90
10270;DHT22;5180;50.832;5.390;2022-09-16T04:12:06;12.20;99.90
10270;DHT22;5180;50.832;5.390;2022-09-16T04:14:33;12.30;99.90
10270;DHT22;5180;50.832;5.390;2022-09-16T04:16:59;12.40;99.90
10270;DHT22;5180;50.832;5.390;2022-09-16T04:19:24;12.40;99.90
10270;DHT22;5180;50.832;5.390;2022-09-16T04:21:50;12.40;99.90
10270;DHT22;5180;50.832;5.390;2022-09-16T04:24:16;12.50;99.90
10270;DHT22;5180;50.832;5.390;2022-09-16T04:26:42;12.40;99.90
10270;DHT22;5180;50.832;5.390;2022-09-16T04:29:08;12.40;99.90
10270;DHT22;5180;50.832;5.390;2022-09-16T04:31:33;12.40;99.90
10270;DHT22;5180;50.832;5.390;2022-09-16T04:34:03;12.50;99.90
10270;DHT22;5180;50.832;5.390;2022-09-16T04:36:29;12.40;99.90
10270;DHT22;5180;50.832;5.390;2022-09-16T04:38:55;12.40;99.90
10270;DHT22;5180;50.832;5.390;2022-09-16T04:41:25;12.40;99.90
10270;DHT22;5180;50.832;5.390;2022-09-16T04:43:58;12.40;99.90
10270;DHT22;5180;50.832;5.390;2022-09-16T04:46:28;12.50;99.90
10270;DHT22;5180;50.832;5.390;2022-09-16T04:48:54;12.50;99.90
10270;DHT22;5180;50.832;5.390;2022-09-16T04:51:21;12.50;99.90
10270;DHT22;5180;50.832;5.390;2022-09-16T04:53:48;12.50;99.90
10270;DHT22;5180;50.832;5.390;2022-09-16T04:56:19;12.50;99.90
10270;DHT22;5180;50.832;5.390;2022-09-16T04:58:50;12.50;99.90
10270;DHT22;5180;50.832;5.390;2022-09-16T05:01:18;12.60;99.90
10270;DHT22;5180;50.832;5.390;2022-09-16T05:03:47;12.60;99.90
10270;DHT22;5180;50.832;5.390;2022-09-16T05:06:15;12.60;99.90
10270;DHT22;5180;50.832;5.390;2022-09-16T05:08:41;12.60;99.90
10270;DHT22;5180;50.832;5.390;2022-09-16T05:11:15;12.60;99.90
10270;DHT22;5180;50.832;5.390;2022-09-16T05:13:41;12.60;99.90
10270;DHT22;5180;50.832;5.390;2022-09-16T05:16:09;12.60;99.90
10270;DHT22;5180;50.832;5.390;2022-09-16T05:18:37;12.60;99.90
10270;DHT22;5180;50.832;5.390;2022-09-16T05:21:05;12.60;99.90
10270;DHT22;5180;50.832;5.390;2022-09-16T05:23:32;12.60;99.90
10270;DHT22;5180;50.832;5.390;2022-09-16T05:26:03;12.70;99.90
10270;DHT22;5180;50.832;5.390;2022-09-16T05:28:29;12.70;99.90
10270;DHT22;5180;50.832;5.390;2022-09-16T05:31:05;12.70;99.90
10270;DHT22;5180;50.832;5.390;2022-09-16T05:33:31;12.70;99.90
10270;DHT22;5180;50.832;5.390;2022-09-16T05:36:03;12.80;99.90
10270;DHT22;5180;50.832;5.390;2022-09-16T05:38:29;12.80;99.90
10270;DHT22;5180;50.832;5.390;2022-09-16T05:40:58;12.80;99.90
10270;DHT22;5180;50.832;5.390;2022-09-16T05:43:23;12.90;99.90
10270;DHT22;5180;50.832;5.390;2022-09-16T05:45:53;12.90;99.90
10270;DHT22;5180;50.832;5.390;2022-09-16T05:48:20;13.00;99.90
10270;DHT22;5180;50.832;5.390;2022-09-16T05:51:04;13.00;99.90
10270;DHT22;5180;50.832;5.390;2022-09-16T05:53:31;13.00;99.90
10270;DHT22;5180;50.832;5.390;2022-09-16T05:56:09;13.10;99.90
10270;DHT22;5180;50.832;5.390;2022-09-16T05:58:35;13.10;99.90
10270;DHT22;5180;50.832;5.390;2022-09-16T06:01:04;13.20;99.90
10270;DHT22;5180;50.832;5.390;2022-09-16T06:03:31;13.20;99.90
10270;DHT22;5180;50.832;5.390;2022-09-16T06:06:25;13.30;99.90
10270;DHT22;5180;50.832;5.390;2022-09-16T06:08:53;13.40;99.90
10270;DHT22;5180;50.832;5.390;2022-09-16T06:11:19;13.40;99.90
10270;DHT22;5180;50.832;5.390;2022-09-16T06:13:45;13.50;99.90
10270;DHT22;5180;50.832;5.390;2022-09-16T06:16:11;13.50;99.90
10270;DHT22;5180;50.832;5.390;2022-09-16T06:18:39;13.60;99.90
10270;DHT22;5180;50.832;5.390;2022-09-16T06:21:07;13.70;99.90
10270;DHT22;5180;50.832;5.390;2022-09-16T06:23:34;13.70;99.90
10270;DHT22;5180;50.832;5.390;2022-09-16T06:26:03;13.70;99.90
10270;DHT22;5180;50.832;5.390;2022-09-16T06:28:30;13.80;99.90
10270;DHT22;5180;50.832;5.390;2022-09-16T06:31:11;13.90;99.90
10270;DHT22;5180;50.832;5.390;2022-09-16T06:33:37;14.10;99.90
10270;DHT22;5180;50.832;5.390;2022-09-16T06:36:12;14.30;99.90
10270;DHT22;5180;50.832;5.390;2022-09-16T06:38:38;14.50;99.90
10270;DHT22;5180;50.832;5.390;2022-09-16T06:41:06;14.80;99.90
10270;DHT22;5180;50.832;5.390;2022-09-16T06:43:33;14.90;99.90
10270;DHT22;5180;50.832;5.390;2022-09-16T06:46:00;15.10;99.90
10270;DHT22;5180;50.832;5.390;2022-09-16T06:48:26;15.10;99.90
10270;DHT22;5180;50.832;5.390;2022-09-16T06:51:00;15.30;99.90
10270;DHT22;5180;50.832;5.390;2022-09-16T06:53:27;15.50;99.90
10270;DHT22;5180;50.832;5.390;2022-09-16T06:55:53;15.80;99.90
10270;DHT22;5180;50.832;5.390;2022-09-16T06:58:19;15.90;99.90
10270;DHT22;5180;50.832;5.390;2022-09-16T07:00:44;16.00;99.90
10270;DHT22;5180;50.832;5.390;2022-09-16T07:03:10;16.10;99.90
10270;DHT22;5180;50.832;5.390;2022-09-16T07:05:36;16.30;99.90
10270;DHT22;5180;50.832;5.390;2022-09-16T07:08:01;16.30;99.90
10270;DHT22;5180;50.832;5.390;2022-09-16T07:10:27;16.20;99.90
10270;DHT22;5180;50.832;5.390;2022-09-16T07:12:52;16.10;99.90
10270;DHT22;5180;50.832;5.390;2022-09-16T07:15:18;16.00;99.90
10270;DHT22;5180;50.832;5.390;2022-09-16T07:17:44;15.90;99.90
10270;DHT22;5180;50.832;5.390;2022-09-16T07:20:09;15.80;99.90
10270;DHT22;5180;50.832;5.390;2022-09-16T07:22:35;15.70;99.90
10270;DHT22;5180;50.832;5.390;2022-09-16T07:25:00;15.70;99.90
10270;DHT22;5180;50.832;5.390;2022-09-16T07:27:26;15.60;99.90
10270;DHT22;5180;50.832;5.390;2022-09-16T07:29:52;15.60;99.90
10270;DHT22;5180;50.832;5.390;2022-09-16T07:32:18;15.60;99.90
10270;DHT22;5180;50.832;5.390;2022-09-16T07:34:44;15.60;99.90
10270;DHT22;5180;50.832;5.390;2022-09-16T07:37:10;15.60;99.90
10270;DHT22;5180;50.832;5.390;2022-09-16T07:39:37;15.60;99.90
10270;DHT22;5180;50.832;5.390;2022-09-16T07:42:02;15.60;99.90
10270;DHT22;5180;50.832;5.390;2022-09-16T07:44:28;15.70;99.90
10270;DHT22;5180;50.832;5.390;2022-09-16T07:46:54;15.70;99.90
10270;DHT22;5180;50.832;5.390;2022-09-16T07:49:20;15.70;99.90
10270;DHT22;5180;50.832;5.390;2022-09-16T07:51:45;15.70;99.90
10270;DHT22;5180;50.832;5.390;2022-09-16T07:54:15;15.80;99.90
10270;DHT22;5180;50.832;5.390;2022-09-16T07:56:42;15.90;99.90
10270;DHT22;5180;50.832;5.390;2022-09-16T07:59:15;15.90;99.90
10270;DHT22;5180;50.832;5.390;2022-09-16T08:01:41;16.00;99.90
10270;DHT22;5180;50.832;5.390;2022-09-16T08:04:07;16.20;99.90
10270;DHT22;5180;50.832;5.390;2022-09-16T08:06:37;16.40;99.90
10270;DHT22;5180;50.832;5.390;2022-09-16T08:09:03;16.50;99.90
10270;DHT22;5180;50.832;5.390;2022-09-16T08:11:29;16.40;99.90
10270;DHT22;5180;50.832;5.390;2022-09-16T08:13:57;16.40;99.90
10270;DHT22;5180;50.832;5.390;2022-09-16T08:16:24;16.40;99.90
10270;DHT22;5180;50.832;5.390;2022-09-16T08:18:52;16.40;99.90
10270;DHT22;5180;50.832;5.390;2022-09-16T08:21:24;16.60;99.90
10270;DHT22;5180;50.832;5.390;2022-09-16T08:23:50;16.60;99.90
10270;DHT22;5180;50.832;5.390;2022-09-16T08:26:17;16.60;99.90
10270;DHT22;5180;50.832;5.390;2022-09-16T08:28:44;16.50;99.90
10270;DHT22;5180;50.832;5.390;2022-09-16T08:31:10;16.40;99.90
10270;DHT22;5180;50.832;5.390;2022-09-16T08:33:39;16.30;99.90
10270;DHT22;5180;50.832;5.390;2022-09-16T08:36:09;16.30;99.90
10270;DHT22;5180;50.832;5.390;2022-09-16T08:38:36;16.20;99.90
10270;DHT22;5180;50.832;5.390;2022-09-16T08:49:37;15.80;99.90
10270;DHT22;5180;50.832;5.390;2022-09-16T08:52:22;15.70;99.90
10270;DHT22;5180;50.832;5.390;2022-09-16T08:54:58;15.40;99.90
10270;DHT22;5180;50.832;5.390;2022-09-16T08:57:27;15.20;99.90
10270;DHT22;5180;50.832;5.390;2022-09-16T09:00:12;15.20;99.90
10270;DHT22;5180;50.832;5.390;2022-09-16T09:11:44;15.80;99.90
10270;DHT22;5180;50.832;5.390;2022-09-16T09:17:12;16.10;99.90
10270;DHT22;5180;50.832;5.390;2022-09-16T09:23:35;16.50;99.90
10270;DHT22;5180;50.832;5.390;2022-09-16T09:28:57;16.70;99.90
10270;DHT22;5180;50.832;5.390;2022-09-16T09:37:11;16.90;99.90
10270;DHT22;5180;50.832;5.390;2022-09-16T09:39:54;17.00;99.90
10270;DHT22;5180;50.832;5.390;2022-09-16T09:42:31;17.10;99.90
10270;DHT22;5180;50.832;5.390;2022-09-16T09:52:47;17.30;99.90
10270;DHT22;5180;50.832;5.390;2022-09-16T09:55:18;17.20;99.90
10270;DHT22;5180;50.832;5.390;2022-09-16T09:57:59;17.20;99.90
10270;DHT22;5180;50.832;5.390;2022-09-16T10:00:26;17.20;99.90
10270;DHT22;5180;50.832;5.390;2022-09-16T10:03:01;17.50;99.90
10270;DHT22;5180;50.832;5.390;2022-09-16T10:05:29;17.80;99.90
10270;DHT22;5180;50.832;5.390;2022-09-16T10:10:45;18.40;99.90
10270;DHT22;5180;50.832;5.390;2022-09-16T10:13:12;18.60;99.90
10270;DHT22;5180;50.832;5.390;2022-09-16T10:15:38;18.90;99.90
10270;DHT22;5180;50.832;5.390;2022-09-16T10:18:33;19.00;99.90
10270;DHT22;5180;50.832;5.390;2022-09-16T10:21:14;19.50;99.90
10270;DHT22;5180;50.832;5.390;2022-09-16T10:23:41;19.40;99.90
10270;DHT22;5180;50.832;5.390;2022-09-16T10:29:15;19.20;99.90
10270;DHT22;5180;50.832;5.390;2022-09-16T10:31:42;19.10;99.90
10270;DHT22;5180;50.832;5.390;2022-09-16T10:34:35;18.70;99.90
10270;DHT22;5180;50.832;5.390;2022-09-16T10:39:44;17.10;99.90
10270;DHT22;5180;50.832;5.390;2022-09-16T10:42:17;16.40;99.90
10270;DHT22;5180;50.832;5.390;2022-09-16T10:44:44;15.90;99.90
10270;DHT22;5180;50.832;5.390;2022-09-16T10:47:22;15.60;99.90
10270;DHT22;5180;50.832;5.390;2022-09-16T10:49:51;15.50;99.90
10270;DHT22;5180;50.832;5.390;2022-09-16T10:52:24;15.60;99.90
10270;DHT22;5180;50.832;5.390;2022-09-16T10:54:50;16.00;99.90
10270;DHT22;5180;50.832;5.390;2022-09-16T10:57:30;16.40;99.90
10270;DHT22;5180;50.832;5.390;2022-09-16T11:00:17;16.80;99.90
10270;DHT22;5180;50.832;5.390;2022-09-16T11:28:28;20.10;99.90
10270;DHT22;5180;50.832;5.390;2022-09-16T11:31:21;20.50;99.90
10270;DHT22;5180;50.832;5.390;2022-09-16T11:33:54;20.80;99.90
10270;DHT22;5180;50.832;5.390;2022-09-16T11:44:47;19.40;99.90
10270;DHT22;5180;50.832;5.390;2022-09-16T11:49:56;19.00;99.90
10270;DHT22;5180;50.832;5.390;2022-09-16T11:58:14;19.20;99.90
10270;DHT22;5180;50.832;5.390;2022-09-16T12:00:42;19.60;99.90
10270;DHT22;5180;50.832;5.390;2022-09-16T12:03:33;20.00;99.90
10270;DHT22;5180;50.832;5.390;2022-09-16T12:06:09;20.20;99.90
10270;DHT22;5180;50.832;5.390;2022-09-16T12:08:56;20.30;99.90
10270;DHT22;5180;50.832;5.390;2022-09-16T12:11:36;20.30;99.90
10270;DHT22;5180;50.832;5.390;2022-09-16T12:16:57;20.20;99.90
10270;DHT22;5180;50.832;5.390;2022-09-16T12:19:35;20.10;99.90
10270;DHT22;5180;50.832;5.390;2022-09-16T12:22:08;20.40;99.90
10270;DHT22;5180;50.832;5.390;2022-09-16T12:24:44;20.80;99.90
10270;DHT22;5180;50.832;5.390;2022-09-16T12:27:26;20.80;99.90
10270;DHT22;5180;50.832;5.390;2022-09-16T12:30:12;20.60;99.90
10270;DHT22;5180;50.832;5.390;2022-09-16T12:35:16;19.50;99.90
10270;DHT22;5180;50.832;5.390;2022-09-16T12:40:18;16.90;99.90
10270;DHT22;5180;50.832;5.390;2022-09-16T12:43:03;15.30;99.90
10270;DHT22;5180;50.832;5.390;2022-09-16T12:48:29;13.80;99.90
10270;DHT22;5180;50.832;5.390;2022-09-16T12:59:19;15.10;99.90
10270;DHT22;5180;50.832;5.390;2022-09-16T13:01:54;15.50;99.90
10270;DHT22;5180;50.832;5.390;2022-09-16T13:04:26;16.20;99.90
10270;DHT22;5180;50.832;5.390;2022-09-16T13:06:54;16.80;99.90
10270;DHT22;5180;50.832;5.390;2022-09-16T13:09:36;17.40;99.90
10270;DHT22;5180;50.832;5.390;2022-09-16T13:12:18;17.70;99.90
10270;DHT22;5180;50.832;5.390;2022-09-16T13:14:45;17.90;99.90
10270;DHT22;5180;50.832;5.390;2022-09-16T13:17:11;17.90;99.90
10270;DHT22;5180;50.832;5.390;2022-09-16T13:24:57;18.30;99.90
10270;DHT22;5180;50.832;5.390;2022-09-16T13:27:30;18.40;99.90
10270;DHT22;5180;50.832;5.390;2022-09-16T13:37:46;18.00;99.90
10270;DHT22;5180;50.832;5.390;2022-09-16T13:40:30;17.80;99.90
10270;DHT22;5180;50.832;5.390;2022-09-16T13:45:40;17.50;99.90
10270;DHT22;5180;50.832;5.390;2022-09-16T13:48:18;17.20;99.90
10270;DHT22;5180;50.832;5.390;2022-09-16T13:50:53;16.90;99.90
10270;DHT22;5180;50.832;5.390;2022-09-16T13:53:32;16.50;99.90
10270;DHT22;5180;50.832;5.390;2022-09-16T13:58:35;16.00;99.90
10270;DHT22;5180;50.832;5.390;2022-09-16T14:01:12;15.90;99.90
10270;DHT22;5180;50.832;5.390;2022-09-16T14:04:44;15.80;99.90
10270;DHT22;5180;50.832;5.390;2022-09-16T14:12:23;16.40;99.90
10270;DHT22;5180;50.832;5.390;2022-09-16T14:14:51;17.00;99.90
10270;DHT22;5180;50.832;5.390;2022-09-16T14:17:24;17.20;99.90
10270;DHT22;5180;50.832;5.390;2022-09-16T14:19:57;17.10;99.90
10270;DHT22;5180;50.832;5.390;2022-09-16T14:22:23;17.10;99.90
10270;DHT22;5180;50.832;5.390;2022-09-16T14:24:53;17.20;99.90
10270;DHT22;5180;50.832;5.390;2022-09-16T14:27:28;17.40;99.90
10270;DHT22;5180;50.832;5.390;2022-09-16T14:29:57;17.60;99.90
10270;DHT22;5180;50.832;5.390;2022-09-16T14:32:27;17.80;99.90
10270;DHT22;5180;50.832;5.390;2022-09-16T14:34:56;17.90;99.90
10270;DHT22;5180;50.832;5.390;2022-09-16T14:37:24;17.90;99.90
10270;DHT22;5180;50.832;5.390;2022-09-16T14:39:52;18.10;99.90
10270;DHT22;5180;50.832;5.390;2022-09-16T14:42:19;18.20;99.90
10270;DHT22;5180;50.832;5.390;2022-09-16T14:44:50;18.60;99.90
10270;DHT22;5180;50.832;5.390;2022-09-16T14:49:49;19.00;99.90
10270;DHT22;5180;50.832;5.390;2022-09-16T14:52:21;18.80;99.90
10270;DHT22;5180;50.832;5.390;2022-09-16T14:54:48;18.70;99.90
10270;DHT22;5180;50.832;5.390;2022-09-16T14:57:22;18.50;99.90
10270;DHT22;5180;50.832;5.390;2022-09-16T14:59:51;18.50;99.90
10270;DHT22;5180;50.832;5.390;2022-09-16T15:02:25;18.60;99.90
10270;DHT22;5180;50.832;5.390;2022-09-16T15:05:18;18.50;99.90
10270;DHT22;5180;50.832;5.390;2022-09-16T15:07:41;18.30;99.90
10270;DHT22;5180;50.832;5.390;2022-09-16T15:10:25;18.10;99.90
10270;DHT22;5180;50.832;5.390;2022-09-16T15:12:56;17.90;99.90
10270;DHT22;5180;50.832;5.390;2022-09-16T15:18:11;17.50;99.90
10270;DHT22;5180;50.832;5.390;2022-09-16T15:20:40;17.40;99.90
10270;DHT22;5180;50.832;5.390;2022-09-16T15:23:19;17.10;99.90
10270;DHT22;5180;50.832;5.390;2022-09-16T15:26:13;17.00;99.90
10270;DHT22;5180;50.832;5.390;2022-09-16T15:29:03;16.90;99.90
10270;DHT22;5180;50.832;5.390;2022-09-16T15:31:39;16.90;99.90
10270;DHT22;5180;50.832;5.390;2022-09-16T15:34:25;16.70;99.90
10270;DHT22;5180;50.832;5.390;2022-09-16T15:36:56;16.80;99.90
10270;DHT22;5180;50.832;5.390;2022-09-16T15:39:26;16.70;99.90
10270;DHT22;5180;50.832;5.390;2022-09-16T15:44:33;16.10;99.90
10270;DHT22;5180;50.832;5.390;2022-09-16T15:47:00;16.00;99.90
10270;DHT22;5180;50.832;5.390;2022-09-16T15:49:28;15.90;99.90
10270;DHT22;5180;50.832;5.390;2022-09-16T15:52:02;15.90;99.90
10270;DHT22;5180;50.832;5.390;2022-09-16T15:54:52;15.70;99.90
10270;DHT22;5180;50.832;5.390;2022-09-16T16:02:30;14.60;99.90
10270;DHT22;5180;50.832;5.390;2022-09-16T16:05:15;14.30;99.90
10270;DHT22;5180;50.832;5.390;2022-09-16T16:07:46;14.00;99.90
10270;DHT22;5180;50.832;5.390;2022-09-16T16:10:17;13.80;99.90
10270;DHT22;5180;50.832;5.390;2022-09-16T16:12:45;13.60;99.90
10270;DHT22;5180;50.832;5.390;2022-09-16T16:15:13;13.40;99.90
10270;DHT22;5180;50.832;5.390;2022-09-16T16:17:40;13.20;99.90
10270;DHT22;5180;50.832;5.390;2022-09-16T16:20:07;13.10;99.90
10270;DHT22;5180;50.832;5.390;2022-09-16T16:22:33;13.10;99.90
10270;DHT22;5180;50.832;5.390;2022-09-16T16:24:59;13.30;99.90
10270;DHT22;5180;50.832;5.390;2022-09-16T16:27:24;13.50;99.90
10270;DHT22;5180;50.832;5.390;2022-09-16T16:29:50;13.60;99.90
10270;DHT22;5180;50.832;5.390;2022-09-16T16:32:16;13.70;99.90
10270;DHT22;5180;50.832;5.390;2022-09-16T16:34:47;13.80;99.90
10270;DHT22;5180;50.832;5.390;2022-09-16T16:37:15;13.80;99.90
10270;DHT22;5180;50.832;5.390;2022-09-16T16:39:42;13.80;99.90
10270;DHT22;5180;50.832;5.390;2022-09-16T16:42:11;13.80;99.90
10270;DHT22;5180;50.832;5.390;2022-09-16T16:44:37;13.70;99.90
10270;DHT22;5180;50.832;5.390;2022-09-16T16:47:04;13.60;99.90
10270;DHT22;5180;50.832;5.390;2022-09-16T16:49:29;13.60;99.90
10270;DHT22;5180;50.832;5.390;2022-09-16T16:51:55;13.50;99.90
10270;DHT22;5180;50.832;5.390;2022-09-16T16:54:23;13.40;99.90
10270;DHT22;5180;50.832;5.390;2022-09-16T16:56:49;13.40;99.90
10270;DHT22;5180;50.832;5.390;2022-09-16T16:59:16;13.30;99.90
10270;DHT22;5180;50.832;5.390;2022-09-16T17:01:42;13.30;99.90
10270;DHT22;5180;50.832;5.390;2022-09-16T17:04:09;13.20;99.90
10270;DHT22;5180;50.832;5.390;2022-09-16T17:06:35;13.10;99.90
10270;DHT22;5180;50.832;5.390;2022-09-16T17:09:03;13.10;99.90
10270;DHT22;5180;50.832;5.390;2022-09-16T17:11:29;13.00;99.90
10270;DHT22;5180;50.832;5.390;2022-09-16T17:14:00;12.90;99.90
10270;DHT22;5180;50.832;5.390;2022-09-16T17:16:26;12.80;99.90
10270;DHT22;5180;50.832;5.390;2022-09-16T17:18:53;12.80;99.90
10270;DHT22;5180;50.832;5.390;2022-09-16T17:21:26;12.80;99.90
10270;DHT22;5180;50.832;5.390;2022-09-16T17:23:53;12.70;99.90
10270;DHT22;5180;50.832;5.390;2022-09-16T17:26:20;12.70;99.90
10270;DHT22;5180;50.832;5.390;2022-09-16T17:28:48;12.70;99.90
10270;DHT22;5180;50.832;5.390;2022-09-16T17:31:21;12.70;99.90
10270;DHT22;5180;50.832;5.390;2022-09-16T17:33:49;12.60;99.90
10270;DHT22;5180;50.832;5.390;2022-09-16T17:36:17;12.60;99.90
10270;DHT22;5180;50.832;5.390;2022-09-16T17:38:45;12.60;99.90
10270;DHT22;5180;50.832;5.390;2022-09-16T17:41:13;12.50;99.90
10270;DHT22;5180;50.832;5.390;2022-09-16T17:43:40;12.50;99.90
10270;DHT22;5180;50.832;5.390;2022-09-16T17:46:10;12.40;99.90
10270;DHT22;5180;50.832;5.390;2022-09-16T17:48:36;12.40;99.90
10270;DHT22;5180;50.832;5.390;2022-09-16T17:51:02;12.40;99.90
10270;DHT22;5180;50.832;5.390;2022-09-16T17:53:28;12.40;99.90
10270;DHT22;5180;50.832;5.390;2022-09-16T17:56:01;12.40;99.90
10270;DHT22;5180;50.832;5.390;2022-09-16T17:58:27;12.40;99.90
10270;DHT22;5180;50.832;5.390;2022-09-16T18:00:52;12.40;99.90
10270;DHT22;5180;50.832;5.390;2022-09-16T18:03:18;12.30;99.90
10270;DHT22;5180;50.832;5.390;2022-09-16T18:05:44;12.30;99.90
10270;DHT22;5180;50.832;5.390;2022-09-16T18:08:11;12.30;99.90
10270;DHT22;5180;50.832;5.390;2022-09-16T18:10:36;12.30;99.90
10270;DHT22;5180;50.832;5.390;2022-09-16T18:13:02;12.40;99.90
10270;DHT22;5180;50.832;5.390;2022-09-16T18:15:28;12.30;99.90
10270;DHT22;5180;50.832;5.390;2022-09-16T18:17:54;12.30;99.90
10270;DHT22;5180;50.832;5.390;2022-09-16T18:20:20;12.30;99.90
10270;DHT22;5180;50.832;5.390;2022-09-16T18:22:46;12.30;99.90
10270;DHT22;5180;50.832;5.390;2022-09-16T18:25:13;12.30;99.90
10270;DHT22;5180;50.832;5.390;2022-09-16T18:27:38;12.20;99.90
10270;DHT22;5180;50.832;5.390;2022-09-16T18:30:05;12.20;99.90
10270;DHT22;5180;50.832;5.390;2022-09-16T18:32:30;12.20;99.90
10270;DHT22;5180;50.832;5.390;2022-09-16T18:34:56;12.10;99.90
10270;DHT22;5180;50.832;5.390;2022-09-16T18:37:22;12.10;99.90
10270;DHT22;5180;50.832;5.390;2022-09-16T18:39:48;12.10;99.90
10270;DHT22;5180;50.832;5.390;2022-09-16T18:42:14;12.00;99.90
10270;DHT22;5180;50.832;5.390;2022-09-16T18:44:39;12.00;99.90
10270;DHT22;5180;50.832;5.390;2022-09-16T18:47:05;11.90;99.90
10270;DHT22;5180;50.832;5.390;2022-09-16T18:49:30;11.90;99.90
10270;DHT22;5180;50.832;5.390;2022-09-16T18:51:56;11.80;99.90
10270;DHT22;5180;50.832;5.390;2022-09-16T18:54:24;11.80;99.90
10270;DHT22;5180;50.832;5.390;2022-09-16T18:56:55;11.70;99.90
10270;DHT22;5180;50.832;5.390;2022-09-16T18:59:24;11.70;99.90
10270;DHT22;5180;50.832;5.390;2022-09-16T19:01:53;11.60;99.90
10270;DHT22;5180;50.832;5.390;2022-09-16T19:04:22;11.50;99.90
10270;DHT22;5180;50.832;5.390;2022-09-16T19:06:50;11.40;99.90
10270;DHT22;5180;50.832;5.390;2022-09-16T19:09:18;11.40;99.90